sensor_id;sensor_type;location;lat;lon;timestamp;P1;durP1;ratioP1;P2;durP2;ratioP2
24729;SDS011;12832;52.392;13.066;2022-10-31T00:00:42;2.08;;;1.88;;
24729;SDS011;12832;52.392;13.066;2022-10-31T00:03:09;2.00;;;1.90;;
24729;SDS011;12832;52.392;13.066;2022-10-31T00:05:35;2.00;;;1.90;;
24729;SDS011;12832;52.392;13.066;2022-10-31T00:08:01;2.25;;;2.05;;
24729;SDS011;12832;52.392;13.066;2022-10-31T00:10:28;1.80;;;1.70;;
24729;SDS011;12832;52.392;13.066;2022-10-31T00:12:54;1.92;;;1.80;;
24729;SDS011;12832;52.392;13.066;2022-10-31T00:15:20;2.28;;;2.10;;
24729;SDS011;12832;52.392;13.066;2022-10-31T00:17:46;2.17;;;2.08;;
24729;SDS011;12832;52.392;13.066;2022-10-31T00:20:12;2.30;;;2.15;;
24729;SDS011;12832;52.392;13.066;2022-10-31T00:22:38;2.33;;;2.17;;
24729;SDS011;12832;52.392;13.066;2022-10-31T00:25:04;2.17;;;1.98;;
24729;SDS011;12832;52.392;13.066;2022-10-31T00:27:30;2.40;;;2.20;;
24729;SDS011;12832;52.392;13.066;2022-10-31T00:29:56;2.30;;;2.10;;
24729;SDS011;12832;52.392;13.066;2022-10-31T00:32:23;2.20;;;1.95;;
24729;SDS011;12832;52.392;13.066;2022-10-31T00:34:49;2.53;;;2.33;;
24729;SDS011;12832;52.392;13.066;2022-10-31T00:37:15;2.30;;;2.10;;
24729;SDS011;12832;52.392;13.066;2022-10-31T00:39:41;2.28;;;2.10;;
24729;SDS011;12832;52.392;13.066;2022-10-31T00:42:07;2.42;;;2.22;;
24729;SDS011;12832;52.392;13.066;2022-10-31T00:44:33;2.10;;;1.90;;
24729;SDS011;12832;52.392;13.066;2022-10-31T00:46:59;2.30;;;2.10;;
24729;SDS011;12832;52.392;13.066;2022-10-31T00:49:25;2.47;;;2.28;;
24729;SDS011;12832;52.392;13.066;2022-10-31T00:51:51;2.75;;;2.55;;
24729;SDS011;12832;52.392;13.066;2022-10-31T00:54:17;2.40;;;2.20;;
24729;SDS011;12832;52.392;13.066;2022-10-31T00:56:43;2.15;;;2.05;;
24729;SDS011;12832;52.392;13.066;2022-10-31T00:59:09;2.42;;;2.05;;
24729;SDS011;12832;52.392;13.066;2022-10-31T01:01:35;2.28;;;2.10;;
24729;SDS011;12832;52.392;13.066;2022-10-31T01:04:02;2.28;;;2.08;;
24729;SDS011;12832;52.392;13.066;2022-10-31T01:06:28;2.42;;;2.22;;
24729;SDS011;12832;52.392;13.066;2022-10-31T01:08:54;2.20;;;2.10;;
24729;SDS011;12832;52.392;13.066;2022-10-31T01:11:21;2.50;;;2.30;;
24729;SDS011;12832;52.392;13.066;2022-10-31T01:13:49;2.33;;;2.13;;
24729;SDS011;12832;52.392;13.066;2022-10-31T01:16:18;2.15;;;2.05;;
24729;SDS011;12832;52.392;13.066;2022-10-31T01:18:46;2.50;;;2.30;;
24729;SDS011;12832;52.392;13.066;2022-10-31T01:21:14;2.38;;;2.17;;
24729;SDS011;12832;52.392;13.066;2022-10-31T01:23:48;2.60;;;2.40;;
24729;SDS011;12832;52.392;13.066;2022-10-31T01:26:15;2.40;;;2.17;;
24729;SDS011;12832;52.392;13.066;2022-10-31T01:28:46;2.40;;;2.20;;
24729;SDS011;12832;52.392;13.066;2022-10-31T01:31:14;1.90;;;1.80;;
24729;SDS011;12832;52.392;13.066;2022-10-31T01:33:40;2.33;;;2.13;;
24729;SDS011;12832;52.392;13.066;2022-10-31T01:36:17;1.88;;;1.77;;
24729;SDS011;12832;52.392;13.066;2022-10-31T01:38:48;2.40;;;2.20;;
24729;SDS011;12832;52.392;13.066;2022-10-31T01:41:16;2.50;;;2.30;;
24729;SDS011;12832;52.392;13.066;2022-10-31T01:43:49;2.20;;;2.00;;
24729;SDS011;12832;52.392;13.066;2022-10-31T01:46:24;2.40;;;2.20;;
24729;SDS011;12832;52.392;13.066;2022-10-31T01:49:09;2.30;;;2.20;;
24729;SDS011;12832;52.392;13.066;2022-10-31T01:51:45;2.30;;;2.20;;
24729;SDS011;12832;52.392;13.066;2022-10-31T01:54:18;2.10;;;2.00;;
24729;SDS011;12832;52.392;13.066;2022-10-31T01:56:49;2.30;;;2.10;;
24729;SDS011;12832;52.392;13.066;2022-10-31T01:59:19;2.25;;;2.08;;
24729;SDS011;12832;52.392;13.066;2022-10-31T02:01:47;2.55;;;2.33;;
24729;SDS011;12832;52.392;13.066;2022-10-31T02:04:16;2.70;;;2.38;;
24729;SDS011;12832;52.392;13.066;2022-10-31T02:06:48;2.10;;;1.92;;
24729;SDS011;12832;52.392;13.066;2022-10-31T02:09:21;2.20;;;2.00;;
24729;SDS011;12832;52.392;13.066;2022-10-31T02:11:52;2.47;;;2.28;;
24729;SDS011;12832;52.392;13.066;2022-10-31T02:14:26;2.47;;;2.28;;
24729;SDS011;12832;52.392;13.066;2022-10-31T02:16:54;2.38;;;2.17;;
24729;SDS011;12832;52.392;13.066;2022-10-31T02:19:35;2.30;;;2.10;;
24729;SDS011;12832;52.392;13.066;2022-10-31T02:22:20;2.10;;;2.00;;
24729;SDS011;12832;52.392;13.066;2022-10-31T02:33:35;2.40;;;2.20;;
24729;SDS011;12832;52.392;13.066;2022-10-31T02:36:34;2.10;;;1.92;;
24729;SDS011;12832;52.392;13.066;2022-10-31T02:39:13;2.33;;;2.08;;
24729;SDS011;12832;52.392;13.066;2022-10-31T02:47:43;2.45;;;2.25;;
24729;SDS011;12832;52.392;13.066;2022-10-31T02:50:18;2.50;;;2.30;;
24729;SDS011;12832;52.392;13.066;2022-10-31T02:52:52;2.42;;;2.22;;
24729;SDS011;12832;52.392;13.066;2022-10-31T02:57:51;2.47;;;2.28;;
24729;SDS011;12832;52.392;13.066;2022-10-31T03:00:22;2.60;;;2.40;;
24729;SDS011;12832;52.392;13.066;2022-10-31T03:02:53;2.33;;;2.13;;
24729;SDS011;12832;52.392;13.066;2022-10-31T03:10:42;2.20;;;2.05;;
24729;SDS011;12832;52.392;13.066;2022-10-31T03:18:49;2.00;;;1.90;;
24729;SDS011;12832;52.392;13.066;2022-10-31T03:21:20;1.95;;;1.85;;
24729;SDS011;12832;52.392;13.066;2022-10-31T03:23:59;2.50;;;2.30;;
24729;SDS011;12832;52.392;13.066;2022-10-31T03:26:26;2.13;;;2.00;;
24729;SDS011;12832;52.392;13.066;2022-10-31T03:31:23;2.60;;;2.40;;
24729;SDS011;12832;52.392;13.066;2022-10-31T03:33:55;2.08;;;1.90;;
24729;SDS011;12832;52.392;13.066;2022-10-31T03:36:24;2.45;;;2.25;;
24729;SDS011;12832;52.392;13.066;2022-10-31T03:38:52;2.35;;;2.15;;
24729;SDS011;12832;52.392;13.066;2022-10-31T03:41:21;2.45;;;2.28;;
24729;SDS011;12832;52.392;13.066;2022-10-31T03:43:52;2.03;;;1.92;;
24729;SDS011;12832;52.392;13.066;2022-10-31T03:46:23;2.28;;;2.17;;
24729;SDS011;12832;52.392;13.066;2022-10-31T03:48:49;2.42;;;2.22;;
24729;SDS011;12832;52.392;13.066;2022-10-31T03:51:22;2.47;;;2.28;;
24729;SDS011;12832;52.392;13.066;2022-10-31T03:54:01;2.25;;;2.05;;
24729;SDS011;12832;52.392;13.066;2022-10-31T03:56:49;2.25;;;2.10;;
24729;SDS011;12832;52.392;13.066;2022-10-31T03:59:24;2.00;;;1.90;;
24729;SDS011;12832;52.392;13.066;2022-10-31T04:02:02;2.38;;;2.17;;
24729;SDS011;12832;52.392;13.066;2022-10-31T04:04:33;2.00;;;1.90;;
24729;SDS011;12832;52.392;13.066;2022-10-31T04:07:00;2.35;;;2.15;;
24729;SDS011;12832;52.392;13.066;2022-10-31T04:09:29;2.10;;;2.00;;
24729;SDS011;12832;52.392;13.066;2022-10-31T04:11:59;2.75;;;2.55;;
24729;SDS011;12832;52.392;13.066;2022-10-31T04:14:27;2.50;;;2.30;;
24729;SDS011;12832;52.392;13.066;2022-10-31T04:16:56;2.35;;;2.05;;
24729;SDS011;12832;52.392;13.066;2022-10-31T04:19:22;2.78;;;2.58;;
24729;SDS011;12832;52.392;13.066;2022-10-31T04:21:49;2.42;;;2.25;;
24729;SDS011;12832;52.392;13.066;2022-10-31T04:24:15;2.17;;;2.05;;
24729;SDS011;12832;52.392;13.066;2022-10-31T04:26:41;2.10;;;2.00;;
24729;SDS011;12832;52.392;13.066;2022-10-31T04:29:07;2.17;;;2.08;;
24729;SDS011;12832;52.392;13.066;2022-10-31T04:31:33;2.72;;;2.53;;
24729;SDS011;12832;52.392;13.066;2022-10-31T04:33:59;2.08;;;1.88;;
24729;SDS011;12832;52.392;13.066;2022-10-31T04:36:25;2.35;;;2.25;;
24729;SDS011;12832;52.392;13.066;2022-10-31T04:38:51;2.30;;;2.15;;
24729;SDS011;12832;52.392;13.066;2022-10-31T04:41:17;2.03;;;1.92;;
24729;SDS011;12832;52.392;13.066;2022-10-31T04:43:43;2.00;;;1.90;;
24729;SDS011;12832;52.392;13.066;2022-10-31T04:46:12;2.00;;;1.90;;
24729;SDS011;12832;52.392;13.066;2022-10-31T04:48:39;2.38;;;2.17;;
24729;SDS011;12832;52.392;13.066;2022-10-31T04:51:05;2.40;;;2.20;;
24729;SDS011;12832;52.392;13.066;2022-10-31T04:53:31;2.38;;;2.17;;
24729;SDS011;12832;52.392;13.066;2022-10-31T04:55:58;2.25;;;2.08;;
24729;SDS011;12832;52.392;13.066;2022-10-31T04:58:25;2.55;;;2.20;;
24729;SDS011;12832;52.392;13.066;2022-10-31T05:00:54;1.95;;;1.85;;
24729;SDS011;12832;52.392;13.066;2022-10-31T05:03:21;2.20;;;2.00;;
24729;SDS011;12832;52.392;13.066;2022-10-31T05:05:47;2.42;;;2.22;;
24729;SDS011;12832;52.392;13.066;2022-10-31T05:08:14;2.22;;;2.13;;
24729;SDS011;12832;52.392;13.066;2022-10-31T05:10:40;2.20;;;2.00;;
24729;SDS011;12832;52.392;13.066;2022-10-31T05:13:07;2.58;;;2.38;;
24729;SDS011;12832;52.392;13.066;2022-10-31T05:15:33;1.90;;;1.80;;
24729;SDS011;12832;52.392;13.066;2022-10-31T05:18:00;2.30;;;2.10;;
24729;SDS011;12832;52.392;13.066;2022-10-31T05:20:28;2.00;;;1.90;;
24729;SDS011;12832;52.392;13.066;2022-10-31T05:22:55;2.08;;;1.88;;
24729;SDS011;12832;52.392;13.066;2022-10-31T05:25:23;2.38;;;2.17;;
24729;SDS011;12832;52.392;13.066;2022-10-31T05:27:52;2.35;;;2.15;;
24729;SDS011;12832;52.392;13.066;2022-10-31T05:30:20;2.15;;;2.05;;
24729;SDS011;12832;52.392;13.066;2022-10-31T05:32:49;2.10;;;2.00;;
24729;SDS011;12832;52.392;13.066;2022-10-31T05:35:20;2.03;;;1.92;;
24729;SDS011;12832;52.392;13.066;2022-10-31T05:37:54;2.40;;;2.20;;
24729;SDS011;12832;52.392;13.066;2022-10-31T05:40:20;2.55;;;2.17;;
24729;SDS011;12832;52.392;13.066;2022-10-31T05:42:50;2.25;;;2.08;;
24729;SDS011;12832;52.392;13.066;2022-10-31T05:45:17;2.13;;;2.03;;
24729;SDS011;12832;52.392;13.066;2022-10-31T05:47:53;2.50;;;2.30;;
24729;SDS011;12832;52.392;13.066;2022-10-31T05:50:22;2.10;;;2.00;;
24729;SDS011;12832;52.392;13.066;2022-10-31T05:53:02;2.20;;;2.10;;
24729;SDS011;12832;52.392;13.066;2022-10-31T05:55:29;2.08;;;1.98;;
24729;SDS011;12832;52.392;13.066;2022-10-31T05:57:56;2.00;;;1.90;;
24729;SDS011;12832;52.392;13.066;2022-10-31T06:00:23;2.15;;;2.03;;
24729;SDS011;12832;52.392;13.066;2022-10-31T06:02:57;2.30;;;2.10;;
24729;SDS011;12832;52.392;13.066;2022-10-31T06:05:25;2.33;;;2.13;;
24729;SDS011;12832;52.392;13.066;2022-10-31T06:07:51;2.80;;;2.50;;
24729;SDS011;12832;52.392;13.066;2022-10-31T06:10:17;2.75;;;2.42;;
24729;SDS011;12832;52.392;13.066;2022-10-31T06:12:46;2.53;;;2.30;;
24729;SDS011;12832;52.392;13.066;2022-10-31T06:15:13;2.95;;;2.65;;
24729;SDS011;12832;52.392;13.066;2022-10-31T06:17:39;3.63;;;2.70;;
24729;SDS011;12832;52.392;13.066;2022-10-31T06:20:06;2.80;;;2.30;;
24729;SDS011;12832;52.392;13.066;2022-10-31T06:22:32;2.55;;;2.28;;
24729;SDS011;12832;52.392;13.066;2022-10-31T06:24:59;4.20;;;2.50;;
24729;SDS011;12832;52.392;13.066;2022-10-31T06:27:25;3.97;;;2.63;;
24729;SDS011;12832;52.392;13.066;2022-10-31T06:29:52;3.00;;;2.45;;
24729;SDS011;12832;52.392;13.066;2022-10-31T06:32:18;3.67;;;2.50;;
24729;SDS011;12832;52.392;13.066;2022-10-31T06:34:44;2.65;;;2.42;;
24729;SDS011;12832;52.392;13.066;2022-10-31T06:37:13;3.67;;;2.63;;
24729;SDS011;12832;52.392;13.066;2022-10-31T06:39:40;4.50;;;2.33;;
24729;SDS011;12832;52.392;13.066;2022-10-31T06:42:06;2.67;;;2.35;;
24729;SDS011;12832;52.392;13.066;2022-10-31T06:44:32;3.80;;;2.90;;
24729;SDS011;12832;52.392;13.066;2022-10-31T06:46:59;4.22;;;2.55;;
24729;SDS011;12832;52.392;13.066;2022-10-31T06:49:25;3.40;;;2.72;;
24729;SDS011;12832;52.392;13.066;2022-10-31T06:51:51;3.03;;;2.38;;
24729;SDS011;12832;52.392;13.066;2022-10-31T06:54:17;4.75;;;3.10;;
24729;SDS011;12832;52.392;13.066;2022-10-31T06:56:46;3.72;;;2.40;;
24729;SDS011;12832;52.392;13.066;2022-10-31T06:59:13;3.67;;;2.80;;
24729;SDS011;12832;52.392;13.066;2022-10-31T07:01:40;3.22;;;2.63;;
24729;SDS011;12832;52.392;13.066;2022-10-31T07:04:09;3.35;;;2.80;;
24729;SDS011;12832;52.392;13.066;2022-10-31T07:06:35;3.30;;;2.88;;
24729;SDS011;12832;52.392;13.066;2022-10-31T07:09:02;4.45;;;2.80;;
24729;SDS011;12832;52.392;13.066;2022-10-31T07:11:28;3.83;;;2.72;;
24729;SDS011;12832;52.392;13.066;2022-10-31T07:13:54;3.88;;;3.00;;
24729;SDS011;12832;52.392;13.066;2022-10-31T07:16:21;5.53;;;2.83;;
24729;SDS011;12832;52.392;13.066;2022-10-31T07:18:47;3.25;;;2.50;;
24729;SDS011;12832;52.392;13.066;2022-10-31T07:21:13;3.85;;;3.08;;
24729;SDS011;12832;52.392;13.066;2022-10-31T07:23:39;3.42;;;2.90;;
24729;SDS011;12832;52.392;13.066;2022-10-31T07:26:05;3.78;;;2.75;;
24729;SDS011;12832;52.392;13.066;2022-10-31T07:28:31;3.17;;;2.83;;
24729;SDS011;12832;52.392;13.066;2022-10-31T07:30:57;5.28;;;2.50;;
24729;SDS011;12832;52.392;13.066;2022-10-31T07:33:24;4.57;;;2.95;;
24729;SDS011;12832;52.392;13.066;2022-10-31T07:35:53;4.00;;;2.75;;
24729;SDS011;12832;52.392;13.066;2022-10-31T07:38:19;2.67;;;2.47;;
24729;SDS011;12832;52.392;13.066;2022-10-31T07:40:49;4.35;;;2.67;;
24729;SDS011;12832;52.392;13.066;2022-10-31T07:43:16;4.47;;;2.90;;
24729;SDS011;12832;52.392;13.066;2022-10-31T07:45:43;2.92;;;2.63;;
24729;SDS011;12832;52.392;13.066;2022-10-31T07:48:09;3.20;;;2.90;;
24729;SDS011;12832;52.392;13.066;2022-10-31T07:50:35;5.22;;;3.00;;
24729;SDS011;12832;52.392;13.066;2022-10-31T07:53:05;4.43;;;2.80;;
24729;SDS011;12832;52.392;13.066;2022-10-31T07:55:33;3.10;;;2.78;;
24729;SDS011;12832;52.392;13.066;2022-10-31T07:58:01;2.85;;;2.55;;
24729;SDS011;12832;52.392;13.066;2022-10-31T08:00:29;3.38;;;2.53;;
24729;SDS011;12832;52.392;13.066;2022-10-31T08:03:00;3.83;;;2.80;;
24729;SDS011;12832;52.392;13.066;2022-10-31T08:05:29;4.65;;;2.90;;
24729;SDS011;12832;52.392;13.066;2022-10-31T08:07:56;4.13;;;2.70;;
24729;SDS011;12832;52.392;13.066;2022-10-31T08:10:23;5.80;;;2.85;;
24729;SDS011;12832;52.392;13.066;2022-10-31T08:12:57;4.80;;;3.00;;
24729;SDS011;12832;52.392;13.066;2022-10-31T08:15:24;4.63;;;2.80;;
24729;SDS011;12832;52.392;13.066;2022-10-31T08:17:51;4.68;;;3.20;;
24729;SDS011;12832;52.392;13.066;2022-10-31T08:20:17;4.70;;;3.13;;
24729;SDS011;12832;52.392;13.066;2022-10-31T08:22:52;4.05;;;3.03;;
24729;SDS011;12832;52.392;13.066;2022-10-31T08:25:22;3.10;;;2.80;;
24729;SDS011;12832;52.392;13.066;2022-10-31T08:27:50;4.57;;;3.60;;
24729;SDS011;12832;52.392;13.066;2022-10-31T08:30:17;4.70;;;2.83;;
24729;SDS011;12832;52.392;13.066;2022-10-31T08:32:44;3.72;;;2.97;;
24729;SDS011;12832;52.392;13.066;2022-10-31T08:35:10;4.10;;;3.03;;
24729;SDS011;12832;52.392;13.066;2022-10-31T08:37:36;4.30;;;3.13;;
24729;SDS011;12832;52.392;13.066;2022-10-31T08:40:02;4.72;;;2.88;;
24729;SDS011;12832;52.392;13.066;2022-10-31T08:42:29;4.80;;;3.00;;
24729;SDS011;12832;52.392;13.066;2022-10-31T08:44:55;4.47;;;2.88;;
24729;SDS011;12832;52.392;13.066;2022-10-31T08:47:21;4.90;;;3.65;;
24729;SDS011;12832;52.392;13.066;2022-10-31T08:49:47;5.68;;;3.25;;
24729;SDS011;12832;52.392;13.066;2022-10-31T08:52:13;4.60;;;3.10;;
24729;SDS011;12832;52.392;13.066;2022-10-31T08:54:40;4.38;;;3.28;;
24729;SDS011;12832;52.392;13.066;2022-10-31T08:57:06;5.50;;;3.22;;
24729;SDS011;12832;52.392;13.066;2022-10-31T08:59:32;4.13;;;3.10;;
24729;SDS011;12832;52.392;13.066;2022-10-31T09:01:58;4.30;;;2.97;;
24729;SDS011;12832;52.392;13.066;2022-10-31T09:04:24;4.22;;;2.83;;
24729;SDS011;12832;52.392;13.066;2022-10-31T09:06:50;5.05;;;3.70;;
24729;SDS011;12832;52.392;13.066;2022-10-31T09:09:36;3.58;;;2.67;;
24729;SDS011;12832;52.392;13.066;2022-10-31T09:12:03;5.53;;;3.50;;
24729;SDS011;12832;52.392;13.066;2022-10-31T09:14:29;4.53;;;3.10;;
24729;SDS011;12832;52.392;13.066;2022-10-31T09:16:55;6.25;;;3.20;;
24729;SDS011;12832;52.392;13.066;2022-10-31T09:19:22;5.22;;;3.47;;
24729;SDS011;12832;52.392;13.066;2022-10-31T09:21:51;3.35;;;3.05;;
24729;SDS011;12832;52.392;13.066;2022-10-31T09:24:18;5.13;;;2.53;;
24729;SDS011;12832;52.392;13.066;2022-10-31T09:26:44;5.25;;;3.40;;
24729;SDS011;12832;52.392;13.066;2022-10-31T09:29:10;5.20;;;3.70;;
24729;SDS011;12832;52.392;13.066;2022-10-31T09:31:36;4.93;;;3.45;;
24729;SDS011;12832;52.392;13.066;2022-10-31T09:34:09;6.35;;;3.45;;
24729;SDS011;12832;52.392;13.066;2022-10-31T09:36:38;4.43;;;2.85;;
24729;SDS011;12832;52.392;13.066;2022-10-31T09:39:04;4.63;;;3.60;;
24729;SDS011;12832;52.392;13.066;2022-10-31T09:44:07;4.22;;;3.38;;
24729;SDS011;12832;52.392;13.066;2022-10-31T09:52:15;5.63;;;3.63;;
24729;SDS011;12832;52.392;13.066;2022-10-31T09:54:53;4.63;;;3.45;;
24729;SDS011;12832;52.392;13.066;2022-10-31T09:57:25;4.90;;;3.90;;
24729;SDS011;12832;52.392;13.066;2022-10-31T09:59:55;4.43;;;3.35;;
24729;SDS011;12832;52.392;13.066;2022-10-31T10:02:28;4.50;;;3.33;;
24729;SDS011;12832;52.392;13.066;2022-10-31T10:05:05;4.60;;;3.25;;
24729;SDS011;12832;52.392;13.066;2022-10-31T10:10:38;4.90;;;3.67;;
24729;SDS011;12832;52.392;13.066;2022-10-31T10:13:21;5.60;;;3.38;;
24729;SDS011;12832;52.392;13.066;2022-10-31T10:20:58;5.28;;;3.45;;
24729;SDS011;12832;52.392;13.066;2022-10-31T10:26:37;5.72;;;3.40;;
24729;SDS011;12832;52.392;13.066;2022-10-31T10:29:17;4.32;;;3.20;;
24729;SDS011;12832;52.392;13.066;2022-10-31T10:31:53;4.53;;;3.60;;
24729;SDS011;12832;52.392;13.066;2022-10-31T10:37:00;4.40;;;3.50;;
24729;SDS011;12832;52.392;13.066;2022-10-31T10:39:46;4.43;;;3.35;;
24729;SDS011;12832;52.392;13.066;2022-10-31T10:42:16;5.65;;;3.90;;
24729;SDS011;12832;52.392;13.066;2022-10-31T10:45:15;4.05;;;3.40;;
24729;SDS011;12832;52.392;13.066;2022-10-31T10:48:06;4.82;;;3.80;;
24729;SDS011;12832;52.392;13.066;2022-10-31T10:50:41;5.53;;;3.70;;
24729;SDS011;12832;52.392;13.066;2022-10-31T10:59:02;5.80;;;3.28;;
24729;SDS011;12832;52.392;13.066;2022-10-31T11:01:29;5.93;;;3.65;;
24729;SDS011;12832;52.392;13.066;2022-10-31T11:03:55;5.45;;;3.88;;
24729;SDS011;12832;52.392;13.066;2022-10-31T11:06:22;4.97;;;3.67;;
24729;SDS011;12832;52.392;13.066;2022-10-31T11:08:52;4.60;;;3.47;;
24729;SDS011;12832;52.392;13.066;2022-10-31T11:11:23;5.65;;;3.60;;
24729;SDS011;12832;52.392;13.066;2022-10-31T11:14:17;5.00;;;3.95;;
24729;SDS011;12832;52.392;13.066;2022-10-31T11:16:45;4.88;;;3.30;;
24729;SDS011;12832;52.392;13.066;2022-10-31T11:19:15;5.15;;;3.45;;
24729;SDS011;12832;52.392;13.066;2022-10-31T11:21:47;5.15;;;3.80;;
24729;SDS011;12832;52.392;13.066;2022-10-31T11:26:46;4.70;;;3.63;;
24729;SDS011;12832;52.392;13.066;2022-10-31T11:29:17;4.35;;;3.60;;
24729;SDS011;12832;52.392;13.066;2022-10-31T11:31:53;4.18;;;3.80;;
24729;SDS011;12832;52.392;13.066;2022-10-31T11:34:28;6.10;;;4.75;;
24729;SDS011;12832;52.392;13.066;2022-10-31T11:37:00;4.80;;;3.88;;
24729;SDS011;12832;52.392;13.066;2022-10-31T11:39:38;5.43;;;3.92;;
24729;SDS011;12832;52.392;13.066;2022-10-31T11:42:07;5.30;;;4.38;;
24729;SDS011;12832;52.392;13.066;2022-10-31T11:44:34;6.95;;;3.90;;
24729;SDS011;12832;52.392;13.066;2022-10-31T11:47:01;5.20;;;4.53;;
24729;SDS011;12832;52.392;13.066;2022-10-31T11:49:30;5.32;;;4.07;;
24729;SDS011;12832;52.392;13.066;2022-10-31T11:52:04;6.50;;;4.85;;
24729;SDS011;12832;52.392;13.066;2022-10-31T11:54:36;6.20;;;4.78;;
24729;SDS011;12832;52.392;13.066;2022-10-31T12:00:21;5.75;;;4.72;;
24729;SDS011;12832;52.392;13.066;2022-10-31T12:02:49;5.22;;;4.57;;
24729;SDS011;12832;52.392;13.066;2022-10-31T12:07:45;5.50;;;4.40;;
24729;SDS011;12832;52.392;13.066;2022-10-31T12:10:13;6.07;;;4.50;;
24729;SDS011;12832;52.392;13.066;2022-10-31T12:15:46;6.13;;;5.32;;
24729;SDS011;12832;52.392;13.066;2022-10-31T12:21:52;6.53;;;5.43;;
24729;SDS011;12832;52.392;13.066;2022-10-31T12:24:32;8.85;;;5.72;;
24729;SDS011;12832;52.392;13.066;2022-10-31T12:27:28;6.10;;;5.50;;
24729;SDS011;12832;52.392;13.066;2022-10-31T12:30:19;7.22;;;5.32;;
24729;SDS011;12832;52.392;13.066;2022-10-31T12:41:51;7.00;;;5.68;;
24729;SDS011;12832;52.392;13.066;2022-10-31T12:44:29;6.20;;;5.60;;
24729;SDS011;12832;52.392;13.066;2022-10-31T12:47:09;6.00;;;5.40;;
24729;SDS011;12832;52.392;13.066;2022-10-31T12:49:54;6.47;;;5.72;;
24729;SDS011;12832;52.392;13.066;2022-10-31T12:52:41;6.15;;;5.53;;
24729;SDS011;12832;52.392;13.066;2022-10-31T12:58:41;6.47;;;5.85;;
24729;SDS011;12832;52.392;13.066;2022-10-31T13:01:19;7.70;;;6.43;;
24729;SDS011;12832;52.392;13.066;2022-10-31T13:06:38;8.60;;;5.80;;
24729;SDS011;12832;52.392;13.066;2022-10-31T13:09:11;7.03;;;5.88;;
24729;SDS011;12832;52.392;13.066;2022-10-31T13:11:44;6.72;;;5.45;;
24729;SDS011;12832;52.392;13.066;2022-10-31T13:14:26;6.18;;;5.57;;
24729;SDS011;12832;52.392;13.066;2022-10-31T13:17:14;6.93;;;5.88;;
24729;SDS011;12832;52.392;13.066;2022-10-31T13:19:57;6.95;;;6.25;;
24729;SDS011;12832;52.392;13.066;2022-10-31T13:22:31;7.47;;;6.78;;
24729;SDS011;12832;52.392;13.066;2022-10-31T13:25:12;7.80;;;6.90;;
24729;SDS011;12832;52.392;13.066;2022-10-31T13:30:25;7.43;;;6.40;;
24729;SDS011;12832;52.392;13.066;2022-10-31T13:35:38;8.00;;;6.40;;
24729;SDS011;12832;52.392;13.066;2022-10-31T13:38:20;8.98;;;7.40;;
24729;SDS011;12832;52.392;13.066;2022-10-31T13:40:54;8.18;;;6.30;;
24729;SDS011;12832;52.392;13.066;2022-10-31T13:46:22;8.32;;;7.50;;
24729;SDS011;12832;52.392;13.066;2022-10-31T13:49:01;10.23;;;7.63;;
24729;SDS011;12832;52.392;13.066;2022-10-31T13:51:31;7.80;;;6.68;;
24729;SDS011;12832;52.392;13.066;2022-10-31T13:54:21;7.40;;;6.55;;
24729;SDS011;12832;52.392;13.066;2022-10-31T13:56:59;7.82;;;6.95;;
24729;SDS011;12832;52.392;13.066;2022-10-31T13:59:26;8.00;;;6.85;;
24729;SDS011;12832;52.392;13.066;2022-10-31T14:01:58;8.35;;;7.38;;
24729;SDS011;12832;52.392;13.066;2022-10-31T14:04:28;7.38;;;6.68;;
24729;SDS011;12832;52.392;13.066;2022-10-31T14:09:34;8.70;;;6.82;;
24729;SDS011;12832;52.392;13.066;2022-10-31T14:12:07;8.23;;;7.13;;
24729;SDS011;12832;52.392;13.066;2022-10-31T14:14:55;7.13;;;6.50;;
24729;SDS011;12832;52.392;13.066;2022-10-31T14:17:47;7.93;;;7.13;;
24729;SDS011;12832;52.392;13.066;2022-10-31T14:22:48;8.20;;;7.05;;
24729;SDS011;12832;52.392;13.066;2022-10-31T14:25:27;8.57;;;6.97;;
24729;SDS011;12832;52.392;13.066;2022-10-31T14:27:59;6.95;;;6.25;;
24729;SDS011;12832;52.392;13.066;2022-10-31T14:30:29;6.32;;;5.72;;
24729;SDS011;12832;52.392;13.066;2022-10-31T14:33:00;7.53;;;6.82;;
24729;SDS011;12832;52.392;13.066;2022-10-31T14:35:45;6.78;;;6.18;;
24729;SDS011;12832;52.392;13.066;2022-10-31T14:38:34;7.28;;;6.63;;
24729;SDS011;12832;52.392;13.066;2022-10-31T14:47:02;8.25;;;6.53;;
24729;SDS011;12832;52.392;13.066;2022-10-31T14:52:45;6.47;;;5.88;;
24729;SDS011;12832;52.392;13.066;2022-10-31T14:55:15;7.53;;;6.65;;
24729;SDS011;12832;52.392;13.066;2022-10-31T14:57:45;7.32;;;6.35;;
24729;SDS011;12832;52.392;13.066;2022-10-31T15:00:25;6.28;;;5.70;;
24729;SDS011;12832;52.392;13.066;2022-10-31T15:02:55;6.38;;;5.78;;
24729;SDS011;12832;52.392;13.066;2022-10-31T15:05:41;6.95;;;6.25;;
24729;SDS011;12832;52.392;13.066;2022-10-31T15:08:27;6.32;;;5.72;;
24729;SDS011;12832;52.392;13.066;2022-10-31T15:10:53;6.70;;;6.10;;
24729;SDS011;12832;52.392;13.066;2022-10-31T15:13:20;8.23;;;6.28;;
24729;SDS011;12832;52.392;13.066;2022-10-31T15:15:47;6.25;;;5.65;;
24729;SDS011;12832;52.392;13.066;2022-10-31T15:18:24;6.32;;;5.72;;
24729;SDS011;12832;52.392;13.066;2022-10-31T15:20:53;5.70;;;5.25;;
24729;SDS011;12832;52.392;13.066;2022-10-31T15:23:25;6.18;;;5.68;;
24729;SDS011;12832;52.392;13.066;2022-10-31T15:25:59;5.82;;;5.30;;
24729;SDS011;12832;52.392;13.066;2022-10-31T15:28:27;6.50;;;5.90;;
24729;SDS011;12832;52.392;13.066;2022-10-31T15:30:55;6.43;;;5.85;;
24729;SDS011;12832;52.392;13.066;2022-10-31T15:33:24;6.30;;;5.70;;
24729;SDS011;12832;52.392;13.066;2022-10-31T15:36:03;5.90;;;5.30;;
24729;SDS011;12832;52.392;13.066;2022-10-31T15:38:29;5.80;;;5.20;;
24729;SDS011;12832;52.392;13.066;2022-10-31T15:41:00;6.22;;;5.65;;
24729;SDS011;12832;52.392;13.066;2022-10-31T15:43:34;5.45;;;5.05;;
24729;SDS011;12832;52.392;13.066;2022-10-31T15:46:02;5.40;;;4.95;;
24729;SDS011;12832;52.392;13.066;2022-10-31T15:48:32;5.43;;;4.90;;
24729;SDS011;12832;52.392;13.066;2022-10-31T15:51:00;5.90;;;5.40;;
24729;SDS011;12832;52.392;13.066;2022-10-31T15:56:26;5.85;;;5.25;;
24729;SDS011;12832;52.392;13.066;2022-10-31T15:58:54;5.40;;;4.90;;
24729;SDS011;12832;52.392;13.066;2022-10-31T16:01:23;5.30;;;4.80;;
24729;SDS011;12832;52.392;13.066;2022-10-31T16:06:37;5.28;;;4.80;;
24729;SDS011;12832;52.392;13.066;2022-10-31T16:09:04;5.35;;;4.85;;
24729;SDS011;12832;52.392;13.066;2022-10-31T16:11:48;5.53;;;5.07;;
24729;SDS011;12832;52.392;13.066;2022-10-31T16:14:15;5.43;;;4.93;;
24729;SDS011;12832;52.392;13.066;2022-10-31T16:16:52;5.10;;;4.70;;
24729;SDS011;12832;52.392;13.066;2022-10-31T16:19:28;5.70;;;5.07;;
24729;SDS011;12832;52.392;13.066;2022-10-31T16:22:02;5.95;;;5.35;;
24729;SDS011;12832;52.392;13.066;2022-10-31T16:24:57;5.65;;;5.15;;
24729;SDS011;12832;52.392;13.066;2022-10-31T16:27:36;5.72;;;5.22;;
24729;SDS011;12832;52.392;13.066;2022-10-31T16:33:03;5.43;;;4.82;;
24729;SDS011;12832;52.392;13.066;2022-10-31T16:35:34;5.40;;;5.00;;
24729;SDS011;12832;52.392;13.066;2022-10-31T16:38:03;5.75;;;5.25;;
24729;SDS011;12832;52.392;13.066;2022-10-31T16:40:30;6.13;;;5.63;;
24729;SDS011;12832;52.392;13.066;2022-10-31T16:42:57;6.03;;;5.53;;
24729;SDS011;12832;52.392;13.066;2022-10-31T16:45:29;4.70;;;4.30;;
24729;SDS011;12832;52.392;13.066;2022-10-31T16:48:15;5.43;;;4.93;;
24729;SDS011;12832;52.392;13.066;2022-10-31T16:50:47;5.70;;;5.20;;
24729;SDS011;12832;52.392;13.066;2022-10-31T16:53:15;5.60;;;5.05;;